Al Hudaydah, Yemen
Current Conditions -  °F | °C
As of 4:00 PM on Thursday 18 Dec 2014 (Local Time) from OYHD Reporting Station
Few Clouds Few Clouds  
Wind Chill: 84°   Ceiling: Unl
Heat Index: 90°   Visibility: 6mi
Dew Point: 72°   Wind: 9mph
Humidity: 66%   Direction: 230°SW
Pressure: 29.91"   Gusts: NA
Location:  14.8°N, 42.95°E
Report Text: OYHD 181300Z 23008KT 190V270 9999 FEW030 29/22 Q1013
Loading
Personal Weather Stations






























Interactive Weather Map New forecast layout! Learn more

10-Day Weather Forecast

Advertisements
Track Severe Weather on mobile